Terminal Aerodrome Forecast
Issued by NWS Raleigh/Durham, NC

Home | Current Version | Previous Version | Text Only | Print | Product List | Glossary On
Versions: 1 2 3 4 5 6 7 8 9 10 11 12 13 14 15 16 17 18 19
000
FTUS42 KRAH 260148 AAA
TAFRDU
TAF AMD
KRDU 260148Z 2602/2624 25003KT P6SM FEW250
      TEMPO 2612/2615 30012G19KT SKC
     FM261500 30013G22KT P6SM SKC=

USA.gov is the U.S. government's official web portal to all federal, state and local government web resources and services.